»·PEaware :: N656ST KPSP-KAVX

N656ST :: KPSP-KAVX

FLIGHT INFORMATION

Flight Status: Arrived
Operator: Privately registered:
United States
More flights under this callsign
Pilot: John R. (27995)
Aircraft: CESSNA 172 SKYHAWK
(C172)
More flights by this aircraft type
Origin: KPSP Palm Springs Intl
United States
Destination: KAVX Catalina
United States
More flights between these airports :: More routes between these airports
Route: +
File this flight plan on PilotEdge
Remarks:
Altitude:
(Current/Filed)
0ft
Speed:
(Current/Filed)
0kts
Departed: 12-Feb-20 08:25 PM
Arrived: 12-Feb-20 09:15 PM
Distance/Time
Traveled:
99nm/0:50
Distance/Time
To Go:
Arrived

Flight Plot

Page will automatically refresh every two minutes.

Flight plan parsing failed; only flown route is shown


Map Options




Map Legend


Flown Route
Filed Route
Departure Airport
Arrival Airport
Navaid (VOR, NDB)
Fix

Horizontal Profiles

Position Reports

Time Latitude Longitude Heading Altitude Ground
Speed
12-Feb-20 20:23 33.866665 -116.531847 0 2062ft 99kts
12-Feb-20 20:24 33.886007 -116.511285 76 2857ft 103kts
12-Feb-20 20:25 33.890992 -116.520983 244 3251ft 124kts
12-Feb-20 20:26 33.879937 -116.560432 252 3675ft 106kts
12-Feb-20 20:27 33.872377 -116.590434 252 4640ft 88kts
12-Feb-20 20:28 33.865862 -116.616830 253 5523ft 75kts
12-Feb-20 20:29 33.859781 -116.641792 253 6176ft 86kts
12-Feb-20 20:30 33.852661 -116.671309 253 6787ft 95kts
12-Feb-20 20:31 33.845248 -116.702030 253 7434ft 93kts
12-Feb-20 20:32 33.841684 -116.731504 259 8124ft 85kts
12-Feb-20 20:33 33.836725 -116.757397 243 8715ft 83kts
12-Feb-20 20:34 33.823011 -116.788037 246 8850ft 116kts
12-Feb-20 20:35 33.811269 -116.826893 251 8860ft 125kts
12-Feb-20 20:37 33.800698 -116.867818 252 8863ft 131kts
12-Feb-20 20:38 33.790204 -116.910100 253 8863ft 132kts
12-Feb-20 20:39 33.779778 -116.952443 253 8864ft 132kts
12-Feb-20 20:40 33.769284 -116.995090 253 8863ft 131kts
12-Feb-20 20:41 33.758911 -117.037213 253 8863ft 131kts
12-Feb-20 20:42 33.748463 -117.079560 253 8863ft 131kts
12-Feb-20 20:43 33.738040 -117.121732 253 8863ft 131kts
12-Feb-20 20:44 33.727549 -117.164116 253 8863ft 132kts
12-Feb-20 20:45 33.717106 -117.206238 253 8863ft 132kts
12-Feb-20 20:46 33.706610 -117.248502 253 8863ft 132kts
12-Feb-20 20:47 33.696081 -117.290833 253 8862ft 132kts
12-Feb-20 20:48 33.687622 -117.324790 253 8862ft 132kts
12-Feb-20 20:49 33.681713 -117.348488 253 8862ft 132kts
12-Feb-20 20:50 33.671189 -117.390637 253 8862ft 132kts
12-Feb-20 20:51 33.660589 -117.433025 253 8862ft 132kts
12-Feb-20 20:52 33.650042 -117.475131 253 8862ft 132kts
12-Feb-20 20:53 33.639376 -117.517645 253 8862ft 132kts
12-Feb-20 20:54 33.628773 -117.559842 253 8862ft 132kts
12-Feb-20 20:55 33.618143 -117.602075 253 8862ft 132kts
12-Feb-20 20:55 33.609267 -117.637286 253 8861ft 132kts
12-Feb-20 20:57 33.596448 -117.688067 252 8632ft 137kts
12-Feb-20 20:58 33.585336 -117.731994 252 8432ft 137kts
12-Feb-20 20:58 33.576035 -117.768708 252 8265ft 137kts
12-Feb-20 20:59 33.564852 -117.812783 252 8065ft 137kts
12-Feb-20 21:01 33.551362 -117.864136 250 7830ft 138kts
12-Feb-20 21:01 33.540728 -117.900170 251 7664ft 138kts
12-Feb-20 21:02 33.531126 -117.944764 252 7462ft 138kts
12-Feb-20 21:03 33.520998 -117.988955 256 7262ft 138kts
12-Feb-20 21:04 33.509991 -118.033272 252 7000ft 141kts
12-Feb-20 21:05 33.497913 -118.078693 252 6505ft 144kts
12-Feb-20 21:06 33.485733 -118.124351 252 6005ft 144kts
12-Feb-20 21:07 33.473502 -118.170123 252 5504ft 144kts
12-Feb-20 21:08 33.461304 -118.215697 252 5004ft 143kts
12-Feb-20 21:09 33.449099 -118.261223 252 4490ft 144kts
12-Feb-20 21:10 33.439338 -118.307934 254 3887ft 145kts
12-Feb-20 21:11 33.428467 -118.354149 254 3121ft 138kts
12-Feb-20 21:12 33.418292 -118.393018 244 1986ft 107kts
12-Feb-20 21:13 33.405457 -118.415008 234 1606ft 44kts
12-Feb-20 21:14 33.403404 -118.415613 76 1606ft 5kts
12-Feb-20 21:15 33.403457 -118.415149 329 1606ft 0kts
12-Feb-20 21:16 33.403457 -118.415149 329 1606ft 0kts
12-Feb-20 21:17 33.403457 -118.415149 329 1606ft 0kts
12-Feb-20 21:18 33.403457 -118.415149 329 1606ft 0kts
12-Feb-20 21:19 33.403457 -118.415149 329 1606ft 0kts
12-Feb-20 21:20 33.403457 -118.415149 329 1606ft 0kts
12-Feb-20 21:21 33.403457 -118.415149 329 1606ft 0kts
12-Feb-20 21:22 33.403457 -118.415149 329 1606ft 0kts
12-Feb-20 21:23 33.403457 -118.415149 329 1606ft 0kts
12-Feb-20 21:24 33.403457 -118.415149 329 1606ft 0kts
12-Feb-20 21:25 33.403457 -118.415149 329 1606ft 0kts
12-Feb-20 21:26 33.403457 -118.415149 329 1606ft 0kts
12-Feb-20 21:27 33.403457 -118.415149 329 1606ft 0kts
12-Feb-20 21:28 33.403457 -118.415149 329 1606ft 0kts

Navigation Log

Ident Type
Flight plan parsing failed, navigation log unavailable